sensor_id;sensor_type;location;lat;lon;timestamp;pressure;altitude;pressure_sealevel;temperature;humidity
21728;BME280;11026;50.560;17.852;2023-09-19T00:00:44;98794.47;;;19.51;100.00
21728;BME280;11026;50.560;17.852;2023-09-19T00:03:14;98807.50;;;19.65;100.00
21728;BME280;11026;50.560;17.852;2023-09-19T00:05:42;98792.81;;;19.69;100.00
21728;BME280;11026;50.560;17.852;2023-09-19T00:08:13;98793.38;;;19.53;100.00
21728;BME280;11026;50.560;17.852;2023-09-19T00:10:43;98793.34;;;19.44;100.00
21728;BME280;11026;50.560;17.852;2023-09-19T00:13:12;98789.28;;;19.30;100.00
21728;BME280;11026;50.560;17.852;2023-09-19T00:15:43;98795.34;;;19.41;100.00
21728;BME280;11026;50.560;17.852;2023-09-19T00:18:19;98783.06;;;19.49;100.00
21728;BME280;11026;50.560;17.852;2023-09-19T00:20:51;98785.72;;;19.58;100.00
21728;BME280;11026;50.560;17.852;2023-09-19T00:23:19;98772.34;;;19.68;100.00
21728;BME280;11026;50.560;17.852;2023-09-19T00:25:50;98773.31;;;19.67;100.00
21728;BME280;11026;50.560;17.852;2023-09-19T00:28:17;98776.16;;;19.65;100.00
21728;BME280;11026;50.560;17.852;2023-09-19T00:30:47;98782.38;;;19.66;100.00
21728;BME280;11026;50.560;17.852;2023-09-19T00:33:18;98778.41;;;19.60;100.00
21728;BME280;11026;50.560;17.852;2023-09-19T00:35:53;98783.22;;;19.67;100.00
21728;BME280;11026;50.560;17.852;2023-09-19T00:38:22;98784.38;;;19.64;100.00
21728;BME280;11026;50.560;17.852;2023-09-19T00:40:54;98780.41;;;19.68;100.00
21728;BME280;11026;50.560;17.852;2023-09-19T00:43:26;98777.56;;;19.60;100.00
21728;BME280;11026;50.560;17.852;2023-09-19T00:45:55;98778.25;;;19.52;100.00
21728;BME280;11026;50.560;17.852;2023-09-19T00:48:24;98776.44;;;19.53;100.00
21728;BME280;11026;50.560;17.852;2023-09-19T00:50:54;98772.47;;;19.37;100.00
21728;BME280;11026;50.560;17.852;2023-09-19T00:53:24;98777.56;;;19.40;100.00
21728;BME280;11026;50.560;17.852;2023-09-19T00:55:52;98773.03;;;19.51;100.00
21728;BME280;11026;50.560;17.852;2023-09-19T00:58:20;98775.16;;;19.57;100.00
21728;BME280;11026;50.560;17.852;2023-09-19T01:03:23;98765.41;;;19.46;100.00
21728;BME280;11026;50.560;17.852;2023-09-19T01:05:53;98772.47;;;19.57;100.00
21728;BME280;11026;50.560;17.852;2023-09-19T01:08:20;98776.69;;;19.40;100.00
21728;BME280;11026;50.560;17.852;2023-09-19T01:10:52;98768.09;;;19.46;100.00
21728;BME280;11026;50.560;17.852;2023-09-19T01:13:31;98771.91;;;19.34;100.00
21728;BME280;11026;50.560;17.852;2023-09-19T01:21:26;98771.22;;;19.12;100.00
21728;BME280;11026;50.560;17.852;2023-09-19T01:26:56;98772.47;;;18.99;100.00
21728;BME280;11026;50.560;17.852;2023-09-19T01:29:51;98777.00;;;19.17;100.00
21728;BME280;11026;50.560;17.852;2023-09-19T01:32:20;98774.03;;;19.30;100.00
21728;BME280;11026;50.560;17.852;2023-09-19T01:34:54;98768.25;;;19.45;100.00
21728;BME280;11026;50.560;17.852;2023-09-19T01:37:23;98772.47;;;19.37;100.00
21728;BME280;11026;50.560;17.852;2023-09-19T01:40:07;98773.59;;;19.35;100.00
21728;BME280;11026;50.560;17.852;2023-09-19T01:51:05;98772.44;;;19.08;100.00
21728;BME280;11026;50.560;17.852;2023-09-19T01:54:03;98774.88;;;19.31;100.00
21728;BME280;11026;50.560;17.852;2023-09-19T01:56:45;98787.72;;;19.27;100.00
21728;BME280;11026;50.560;17.852;2023-09-19T01:59:21;98783.63;;;19.33;100.00
21728;BME280;11026;50.560;17.852;2023-09-19T02:01:52;98803.81;;;19.37;100.00
21728;BME280;11026;50.560;17.852;2023-09-19T02:04:20;98799.97;;;19.10;100.00
21728;BME280;11026;50.560;17.852;2023-09-19T02:06:47;98788.00;;;19.05;100.00
21728;BME280;11026;50.560;17.852;2023-09-19T02:09:14;98796.41;;;18.90;100.00
21728;BME280;11026;50.560;17.852;2023-09-19T02:11:42;98806.81;;;18.74;100.00
21728;BME280;11026;50.560;17.852;2023-09-19T02:14:09;98804.84;;;18.76;100.00
21728;BME280;11026;50.560;17.852;2023-09-19T02:16:36;98810.00;;;18.68;100.00
21728;BME280;11026;50.560;17.852;2023-09-19T02:19:04;98810.19;;;18.76;100.00
21728;BME280;11026;50.560;17.852;2023-09-19T02:21:33;98806.97;;;18.82;100.00
21728;BME280;11026;50.560;17.852;2023-09-19T02:24:03;98799.22;;;18.79;100.00
21728;BME280;11026;50.560;17.852;2023-09-19T02:26:31;98802.22;;;18.96;100.00
21728;BME280;11026;50.560;17.852;2023-09-19T02:28:59;98811.53;;;19.01;100.00
21728;BME280;11026;50.560;17.852;2023-09-19T02:31:27;98802.94;;;19.27;100.00
21728;BME280;11026;50.560;17.852;2023-09-19T02:33:56;98798.59;;;19.26;100.00
21728;BME280;11026;50.560;17.852;2023-09-19T02:36:23;98806.47;;;19.27;100.00
21728;BME280;11026;50.560;17.852;2023-09-19T02:38:53;98814.78;;;19.24;100.00
21728;BME280;11026;50.560;17.852;2023-09-19T02:41:20;98818.75;;;19.20;100.00
21728;BME280;11026;50.560;17.852;2023-09-19T02:43:47;98819.16;;;19.15;100.00
21728;BME280;11026;50.560;17.852;2023-09-19T02:46:14;98826.63;;;19.12;100.00
21728;BME280;11026;50.560;17.852;2023-09-19T02:48:42;98831.44;;;19.18;100.00
21728;BME280;11026;50.560;17.852;2023-09-19T02:51:09;98821.28;;;19.12;100.00
21728;BME280;11026;50.560;17.852;2023-09-19T02:53:35;98821.00;;;19.05;100.00
21728;BME280;11026;50.560;17.852;2023-09-19T02:56:03;98823.00;;;19.13;100.00
21728;BME280;11026;50.560;17.852;2023-09-19T02:58:31;98821.00;;;19.05;100.00
21728;BME280;11026;50.560;17.852;2023-09-19T03:01:09;98824.09;;;19.10;100.00
21728;BME280;11026;50.560;17.852;2023-09-19T03:03:42;98822.69;;;19.06;100.00
21728;BME280;11026;50.560;17.852;2023-09-19T03:06:10;98818.47;;;19.13;100.00
21728;BME280;11026;50.560;17.852;2023-09-19T03:08:37;98811.97;;;19.16;100.00
21728;BME280;11026;50.560;17.852;2023-09-19T03:11:06;98809.59;;;19.13;100.00
21728;BME280;11026;50.560;17.852;2023-09-19T03:13:38;98810.13;;;19.07;100.00
21728;BME280;11026;50.560;17.852;2023-09-19T03:16:05;98809.69;;;19.02;100.00
21728;BME280;11026;50.560;17.852;2023-09-19T03:18:36;98811.78;;;18.88;100.00
21728;BME280;11026;50.560;17.852;2023-09-19T03:21:04;98812.88;;;18.76;100.00
21728;BME280;11026;50.560;17.852;2023-09-19T03:23:33;98808.81;;;18.51;100.00
21728;BME280;11026;50.560;17.852;2023-09-19T03:26:00;98809.25;;;18.56;100.00
21728;BME280;11026;50.560;17.852;2023-09-19T03:28:26;98808.13;;;18.49;100.00
21728;BME280;11026;50.560;17.852;2023-09-19T03:33:27;98802.63;;;18.60;100.00
21728;BME280;11026;50.560;17.852;2023-09-19T03:35:54;98803.41;;;18.72;100.00
21728;BME280;11026;50.560;17.852;2023-09-19T03:38:21;98796.19;;;18.63;100.00
21728;BME280;11026;50.560;17.852;2023-09-19T03:40:51;98791.25;;;18.68;100.00
21728;BME280;11026;50.560;17.852;2023-09-19T03:43:18;98803.03;;;18.46;100.00
21728;BME280;11026;50.560;17.852;2023-09-19T03:45:46;98793.97;;;18.37;100.00
21728;BME280;11026;50.560;17.852;2023-09-19T03:48:13;98802.97;;;18.36;100.00
21728;BME280;11026;50.560;17.852;2023-09-19T03:50:41;98800.13;;;18.28;100.00
21728;BME280;11026;50.560;17.852;2023-09-19T03:53:10;98805.63;;;18.27;100.00
21728;BME280;11026;50.560;17.852;2023-09-19T03:55:38;98809.66;;;18.21;100.00
21728;BME280;11026;50.560;17.852;2023-09-19T03:58:08;98802.88;;;18.17;100.00
21728;BME280;11026;50.560;17.852;2023-09-19T04:00:35;98814.75;;;18.24;100.00
21728;BME280;11026;50.560;17.852;2023-09-19T04:03:05;98814.13;;;18.11;100.00
21728;BME280;11026;50.560;17.852;2023-09-19T04:05:33;98825.53;;;18.13;100.00
21728;BME280;11026;50.560;17.852;2023-09-19T04:08:00;98820.38;;;18.21;100.00
21728;BME280;11026;50.560;17.852;2023-09-19T04:10:28;98819.53;;;18.21;100.00
21728;BME280;11026;50.560;17.852;2023-09-19T04:12:56;98817.25;;;18.16;100.00
21728;BME280;11026;50.560;17.852;2023-09-19T04:15:24;98820.84;;;18.05;100.00
21728;BME280;11026;50.560;17.852;2023-09-19T04:17:53;98815.13;;;18.10;100.00
21728;BME280;11026;50.560;17.852;2023-09-19T04:20:20;98823.16;;;18.10;100.00
21728;BME280;11026;50.560;17.852;2023-09-19T04:22:49;98829.03;;;18.04;100.00
21728;BME280;11026;50.560;17.852;2023-09-19T04:25:17;98831.25;;;17.99;100.00
21728;BME280;11026;50.560;17.852;2023-09-19T04:27:45;98831.50;;;17.96;100.00
21728;BME280;11026;50.560;17.852;2023-09-19T04:30:13;98826.78;;;18.09;100.00
21728;BME280;11026;50.560;17.852;2023-09-19T04:32:41;98825.72;;;17.90;100.00
21728;BME280;11026;50.560;17.852;2023-09-19T04:35:09;98824.72;;;17.91;100.00
21728;BME280;11026;50.560;17.852;2023-09-19T04:37:40;98828.84;;;17.96;100.00
21728;BME280;11026;50.560;17.852;2023-09-19T04:40:09;98832.00;;;17.89;100.00
21728;BME280;11026;50.560;17.852;2023-09-19T04:42:40;98826.22;;;17.84;100.00
21728;BME280;11026;50.560;17.852;2023-09-19T04:45:08;98821.84;;;17.83;100.00
21728;BME280;11026;50.560;17.852;2023-09-19T04:47:37;98823.16;;;17.89;100.00
21728;BME280;11026;50.560;17.852;2023-09-19T04:50:09;98824.97;;;17.88;100.00
21728;BME280;11026;50.560;17.852;2023-09-19T04:52:41;98826.88;;;17.77;100.00
21728;BME280;11026;50.560;17.852;2023-09-19T04:55:13;98831.59;;;17.73;100.00
21728;BME280;11026;50.560;17.852;2023-09-19T04:57:47;98832.13;;;17.67;100.00
21728;BME280;11026;50.560;17.852;2023-09-19T05:00:19;98823.38;;;17.65;100.00
21728;BME280;11026;50.560;17.852;2023-09-19T05:02:51;98826.53;;;17.70;100.00
21728;BME280;11026;50.560;17.852;2023-09-19T05:05:19;98830.06;;;17.91;100.00
21728;BME280;11026;50.560;17.852;2023-09-19T05:07:47;98832.31;;;17.86;100.00
21728;BME280;11026;50.560;17.852;2023-09-19T05:10:14;98830.31;;;17.88;100.00
21728;BME280;11026;50.560;17.852;2023-09-19T05:12:43;98839.94;;;17.91;100.00
21728;BME280;11026;50.560;17.852;2023-09-19T05:15:14;98843.13;;;18.06;100.00
21728;BME280;11026;50.560;17.852;2023-09-19T05:17:41;98840.16;;;18.09;100.00
21728;BME280;11026;50.560;17.852;2023-09-19T05:20:09;98848.34;;;18.07;100.00
21728;BME280;11026;50.560;17.852;2023-09-19T05:22:43;98835.22;;;18.04;100.00
21728;BME280;11026;50.560;17.852;2023-09-19T05:25:10;98837.91;;;18.04;100.00
21728;BME280;11026;50.560;17.852;2023-09-19T05:27:38;98849.13;;;17.98;100.00
21728;BME280;11026;50.560;17.852;2023-09-19T05:30:07;98848.47;;;18.06;100.00
21728;BME280;11026;50.560;17.852;2023-09-19T05:32:34;98848.56;;;18.25;100.00
21728;BME280;11026;50.560;17.852;2023-09-19T05:35:02;98844.69;;;18.29;100.00
21728;BME280;11026;50.560;17.852;2023-09-19T05:37:31;98857.31;;;18.27;100.00
21728;BME280;11026;50.560;17.852;2023-09-19T05:40:00;98854.56;;;18.38;100.00
21728;BME280;11026;50.560;17.852;2023-09-19T05:42:27;98852.41;;;18.32;100.00
21728;BME280;11026;50.560;17.852;2023-09-19T05:44:55;98854.56;;;18.38;100.00
21728;BME280;11026;50.560;17.852;2023-09-19T05:47:22;98856.34;;;18.28;100.00
21728;BME280;11026;50.560;17.852;2023-09-19T05:49:49;98855.28;;;18.40;100.00
21728;BME280;11026;50.560;17.852;2023-09-19T05:52:19;98857.44;;;18.47;100.00
21728;BME280;11026;50.560;17.852;2023-09-19T05:54:48;98866.28;;;18.37;100.00
21728;BME280;11026;50.560;17.852;2023-09-19T05:57:19;98878.56;;;18.19;100.00
21728;BME280;11026;50.560;17.852;2023-09-19T05:59:47;98882.91;;;18.41;100.00
21728;BME280;11026;50.560;17.852;2023-09-19T06:02:16;98888.78;;;18.35;100.00
21728;BME280;11026;50.560;17.852;2023-09-19T06:04:42;98887.84;;;18.15;100.00
21728;BME280;11026;50.560;17.852;2023-09-19T06:07:09;98889.53;;;18.16;100.00
21728;BME280;11026;50.560;17.852;2023-09-19T06:09:37;98895.41;;;18.10;100.00
21728;BME280;11026;50.560;17.852;2023-09-19T06:12:04;98896.16;;;18.01;100.00
21728;BME280;11026;50.560;17.852;2023-09-19T06:14:33;98908.00;;;18.19;100.00
21728;BME280;11026;50.560;17.852;2023-09-19T06:17:00;98904.34;;;18.20;100.00
21728;BME280;11026;50.560;17.852;2023-09-19T06:19:27;98903.09;;;18.24;100.00
21728;BME280;11026;50.560;17.852;2023-09-19T06:21:54;98913.28;;;18.30;100.00
21728;BME280;11026;50.560;17.852;2023-09-19T06:24:23;98918.84;;;18.38;100.00
21728;BME280;11026;50.560;17.852;2023-09-19T06:26:50;98914.19;;;18.40;100.00
21728;BME280;11026;50.560;17.852;2023-09-19T06:29:20;98931.59;;;18.56;100.00
21728;BME280;11026;50.560;17.852;2023-09-19T06:31:50;98929.06;;;18.54;100.00
21728;BME280;11026;50.560;17.852;2023-09-19T06:34:17;98935.88;;;18.58;100.00
21728;BME280;11026;50.560;17.852;2023-09-19T06:36:45;98939.91;;;18.53;100.00
21728;BME280;11026;50.560;17.852;2023-09-19T06:39:13;98938.94;;;18.54;100.00
21728;BME280;11026;50.560;17.852;2023-09-19T06:41:40;98949.97;;;18.60;100.00
21728;BME280;11026;50.560;17.852;2023-09-19T06:44:08;98955.06;;;18.63;100.00
21728;BME280;11026;50.560;17.852;2023-09-19T06:46:37;98959.31;;;18.66;100.00
21728;BME280;11026;50.560;17.852;2023-09-19T06:49:05;98955.63;;;18.67;100.00
21728;BME280;11026;50.560;17.852;2023-09-19T06:51:33;98958.13;;;18.80;100.00
21728;BME280;11026;50.560;17.852;2023-09-19T06:54:01;98964.97;;;18.94;100.00
21728;BME280;11026;50.560;17.852;2023-09-19T06:56:29;98971.59;;;18.89;100.00
21728;BME280;11026;50.560;17.852;2023-09-19T06:58:56;98972.09;;;18.83;100.00
21728;BME280;11026;50.560;17.852;2023-09-19T07:01:24;98980.16;;;18.83;100.00
21728;BME280;11026;50.560;17.852;2023-09-19T07:03:52;98973.28;;;18.90;100.00
21728;BME280;11026;50.560;17.852;2023-09-19T07:06:20;98983.75;;;18.94;100.00
21728;BME280;11026;50.560;17.852;2023-09-19T07:08:47;98974.72;;;18.95;100.00
21728;BME280;11026;50.560;17.852;2023-09-19T07:11:16;98991.78;;;18.94;100.00
21728;BME280;11026;50.560;17.852;2023-09-19T07:13:46;98991.31;;;18.88;100.00
21728;BME280;11026;50.560;17.852;2023-09-19T07:16:13;98991.06;;;18.91;100.00
21728;BME280;11026;50.560;17.852;2023-09-19T07:18:55;98991.88;;;18.92;100.00
21728;BME280;11026;50.560;17.852;2023-09-19T07:21:23;98993.56;;;18.83;100.00
21728;BME280;11026;50.560;17.852;2023-09-19T07:23:51;98995.97;;;18.86;100.00
21728;BME280;11026;50.560;17.852;2023-09-19T07:26:19;98997.00;;;18.95;100.00
21728;BME280;11026;50.560;17.852;2023-09-19T07:28:46;98998.03;;;18.73;100.00
21728;BME280;11026;50.560;17.852;2023-09-19T07:31:15;99007.59;;;18.76;100.00
21728;BME280;11026;50.560;17.852;2023-09-19T07:33:43;98999.47;;;18.77;100.00
21728;BME280;11026;50.560;17.852;2023-09-19T07:36:11;99002.97;;;18.78;100.00
21728;BME280;11026;50.560;17.852;2023-09-19T07:38:40;99019.63;;;18.81;100.00
21728;BME280;11026;50.560;17.852;2023-09-19T07:41:08;99016.13;;;18.81;100.00
21728;BME280;11026;50.560;17.852;2023-09-19T07:43:37;99014.97;;;18.83;100.00
21728;BME280;11026;50.560;17.852;2023-09-19T07:46:08;99016.66;;;18.84;100.00
21728;BME280;11026;50.560;17.852;2023-09-19T07:48:38;99028.13;;;18.86;100.00
21728;BME280;11026;50.560;17.852;2023-09-19T07:51:08;99027.94;;;18.78;100.00
21728;BME280;11026;50.560;17.852;2023-09-19T07:53:36;99032.75;;;18.84;100.00
21728;BME280;11026;50.560;17.852;2023-09-19T07:56:06;99034.47;;;18.85;100.00
21728;BME280;11026;50.560;17.852;2023-09-19T07:58:34;99035.13;;;18.78;100.00
21728;BME280;11026;50.560;17.852;2023-09-19T08:01:07;99038.06;;;18.75;100.00
21728;BME280;11026;50.560;17.852;2023-09-19T08:03:34;99044.47;;;18.83;100.00
21728;BME280;11026;50.560;17.852;2023-09-19T08:06:05;99041.13;;;18.70;100.00
21728;BME280;11026;50.560;17.852;2023-09-19T08:08:32;99040.59;;;18.76;100.00
21728;BME280;11026;50.560;17.852;2023-09-19T08:10:59;99034.97;;;18.79;100.00
21728;BME280;11026;50.560;17.852;2023-09-19T08:13:26;99039.84;;;18.85;100.00
21728;BME280;11026;50.560;17.852;2023-09-19T08:15:53;99038.09;;;18.84;100.00
21728;BME280;11026;50.560;17.852;2023-09-19T08:18:21;99040.22;;;18.81;100.00
21728;BME280;11026;50.560;17.852;2023-09-19T08:20:52;99045.38;;;18.73;100.00
21728;BME280;11026;50.560;17.852;2023-09-19T08:23:19;99049.88;;;18.72;100.00
21728;BME280;11026;50.560;17.852;2023-09-19T08:25:47;99051.31;;;18.76;100.00
21728;BME280;11026;50.560;17.852;2023-09-19T08:28:14;99053.28;;;18.74;100.00
21728;BME280;11026;50.560;17.852;2023-09-19T08:30:46;99053.53;;;18.71;100.00
21728;BME280;11026;50.560;17.852;2023-09-19T08:33:13;99059.78;;;18.60;100.00
21728;BME280;11026;50.560;17.852;2023-09-19T08:35:43;99066.25;;;18.58;100.00
21728;BME280;11026;50.560;17.852;2023-09-19T08:38:13;99067.81;;;18.60;100.00
21728;BME280;11026;50.560;17.852;2023-09-19T08:40:40;99072.66;;;18.66;100.00
21728;BME280;11026;50.560;17.852;2023-09-19T08:43:09;99072.06;;;18.63;100.00
21728;BME280;11026;50.560;17.852;2023-09-19T08:45:36;99081.53;;;18.67;100.00
21728;BME280;11026;50.560;17.852;2023-09-19T08:48:25;99075.97;;;18.59;100.00
21728;BME280;11026;50.560;17.852;2023-09-19T08:51:12;99080.34;;;18.60;100.00
21728;BME280;11026;50.560;17.852;2023-09-19T08:53:47;99081.09;;;18.62;100.00
21728;BME280;11026;50.560;17.852;2023-09-19T08:56:17;99088.72;;;18.46;100.00
21728;BME280;11026;50.560;17.852;2023-09-19T08:58:53;99088.97;;;18.42;100.00
21728;BME280;11026;50.560;17.852;2023-09-19T09:01:27;99087.47;;;18.50;100.00
21728;BME280;11026;50.560;17.852;2023-09-19T09:03:56;99089.78;;;18.54;100.00
21728;BME280;11026;50.560;17.852;2023-09-19T09:06:26;99090.41;;;18.47;100.00
21728;BME280;11026;50.560;17.852;2023-09-19T09:08:55;99096.41;;;18.39;100.00
21728;BME280;11026;50.560;17.852;2023-09-19T09:11:23;99095.41;;;18.40;100.00
21728;BME280;11026;50.560;17.852;2023-09-19T09:13:52;99091.56;;;18.65;100.00
21728;BME280;11026;50.560;17.852;2023-09-19T09:16:20;99096.31;;;18.61;100.00
21728;BME280;11026;50.560;17.852;2023-09-19T09:18:47;99095.78;;;18.67;100.00
21728;BME280;11026;50.560;17.852;2023-09-19T09:21:21;99095.16;;;18.75;100.00
21728;BME280;11026;50.560;17.852;2023-09-19T09:23:49;99103.59;;;18.71;100.00
21728;BME280;11026;50.560;17.852;2023-09-19T09:29:06;99110.78;;;18.70;100.00
21728;BME280;11026;50.560;17.852;2023-09-19T09:31:33;99109.66;;;18.73;100.00
21728;BME280;11026;50.560;17.852;2023-09-19T09:34:00;99110.25;;;18.76;100.00
21728;BME280;11026;50.560;17.852;2023-09-19T09:36:38;99122.56;;;19.00;100.00
21728;BME280;11026;50.560;17.852;2023-09-19T09:39:11;99118.00;;;18.90;100.00
21728;BME280;11026;50.560;17.852;2023-09-19T09:41:52;99134.31;;;18.87;100.00
21728;BME280;11026;50.560;17.852;2023-09-19T09:44:19;99132.38;;;18.89;100.00
21728;BME280;11026;50.560;17.852;2023-09-19T09:46:48;99143.00;;;18.80;100.00
21728;BME280;11026;50.560;17.852;2023-09-19T09:49:26;99138.25;;;18.83;100.00
21728;BME280;11026;50.560;17.852;2023-09-19T09:52:06;99138.44;;;18.91;100.00
21728;BME280;11026;50.560;17.852;2023-09-19T09:54:37;99142.31;;;18.99;100.00
21728;BME280;11026;50.560;17.852;2023-09-19T09:57:10;99137.69;;;19.01;100.00
21728;BME280;11026;50.560;17.852;2023-09-19T09:59:48;99148.06;;;19.15;100.00
21728;BME280;11026;50.560;17.852;2023-09-19T10:02:42;99149.25;;;19.22;100.00
21728;BME280;11026;50.560;17.852;2023-09-19T10:05:17;99147.19;;;19.35;100.00
21728;BME280;11026;50.560;17.852;2023-09-19T10:07:50;99146.25;;;19.67;100.00
21728;BME280;11026;50.560;17.852;2023-09-19T10:13:11;99149.88;;;19.87;100.00
21728;BME280;11026;50.560;17.852;2023-09-19T10:15:50;99151.34;;;20.01;100.00
21728;BME280;11026;50.560;17.852;2023-09-19T10:18:23;99153.88;;;20.02;100.00
21728;BME280;11026;50.560;17.852;2023-09-19T10:20:51;99152.75;;;20.05;100.00
21728;BME280;11026;50.560;17.852;2023-09-19T10:23:20;99163.81;;;20.11;100.00
21728;BME280;11026;50.560;17.852;2023-09-19T10:25:51;99166.59;;;20.00;100.00
21728;BME280;11026;50.560;17.852;2023-09-19T10:28:21;99155.81;;;19.90;100.00
21728;BME280;11026;50.560;17.852;2023-09-19T10:30:52;99171.88;;;20.11;100.00
21728;BME280;11026;50.560;17.852;2023-09-19T10:33:22;99165.50;;;20.22;100.00
21728;BME280;11026;50.560;17.852;2023-09-19T10:35:50;99170.34;;;20.28;100.00
21728;BME280;11026;50.560;17.852;2023-09-19T10:38:24;99176.19;;;20.43;100.00
21728;BME280;11026;50.560;17.852;2023-09-19T10:40:55;99174.94;;;20.57;100.00
21728;BME280;11026;50.560;17.852;2023-09-19T10:43:38;99173.56;;;20.72;99.90
21728;BME280;11026;50.560;17.852;2023-09-19T10:46:07;99170.16;;;20.80;97.31
21728;BME280;11026;50.560;17.852;2023-09-19T10:48:38;99169.56;;;20.86;91.96
21728;BME280;11026;50.560;17.852;2023-09-19T10:51:16;99157.66;;;21.18;92.25
21728;BME280;11026;50.560;17.852;2023-09-19T10:53:49;99157.00;;;21.72;88.42
21728;BME280;11026;50.560;17.852;2023-09-19T10:56:32;99160.53;;;22.38;81.27
21728;BME280;11026;50.560;17.852;2023-09-19T10:59:12;99166.03;;;23.17;78.92
21728;BME280;11026;50.560;17.852;2023-09-19T11:04:27;99153.41;;;24.04;67.59
21728;BME280;11026;50.560;17.852;2023-09-19T11:07:14;99168.31;;;23.56;68.41
21728;BME280;11026;50.560;17.852;2023-09-19T11:09:50;99174.97;;;23.00;71.33
21728;BME280;11026;50.560;17.852;2023-09-19T11:27:11;99182.56;;;21.49;80.99
21728;BME280;11026;50.560;17.852;2023-09-19T11:29:40;99185.13;;;21.41;82.85
21728;BME280;11026;50.560;17.852;2023-09-19T11:32:09;99197.00;;;21.28;82.94
21728;BME280;11026;50.560;17.852;2023-09-19T11:42:48;99185.59;;;21.07;86.85
21728;BME280;11026;50.560;17.852;2023-09-19T11:48:18;99192.25;;;20.83;87.29
21728;BME280;11026;50.560;17.852;2023-09-19T11:50:45;99197.31;;;20.67;89.70
21728;BME280;11026;50.560;17.852;2023-09-19T11:53:14;99200.16;;;20.75;89.58
21728;BME280;11026;50.560;17.852;2023-09-19T11:55:43;99195.03;;;20.53;90.54
21728;BME280;11026;50.560;17.852;2023-09-19T11:58:15;99193.44;;;20.50;90.93
21728;BME280;11026;50.560;17.852;2023-09-19T12:00:44;99191.38;;;20.63;89.45
21728;BME280;11026;50.560;17.852;2023-09-19T12:03:12;99199.59;;;20.72;89.73
21728;BME280;11026;50.560;17.852;2023-09-19T12:05:42;99193.75;;;20.67;91.79
21728;BME280;11026;50.560;17.852;2023-09-19T12:08:10;99194.31;;;20.70;93.32
21728;BME280;11026;50.560;17.852;2023-09-19T12:10:49;99197.25;;;20.48;93.65
21728;BME280;11026;50.560;17.852;2023-09-19T12:13:18;99192.38;;;20.22;97.67
21728;BME280;11026;50.560;17.852;2023-09-19T12:15:45;99196.75;;;20.23;98.19
21728;BME280;11026;50.560;17.852;2023-09-19T12:18:30;99200.59;;;20.30;98.13
21728;BME280;11026;50.560;17.852;2023-09-19T12:20:58;99200.06;;;20.36;99.01
21728;BME280;11026;50.560;17.852;2023-09-19T12:23:25;99200.16;;;20.25;99.02
21728;BME280;11026;50.560;17.852;2023-09-19T12:25:52;99207.06;;;20.18;100.00
21728;BME280;11026;50.560;17.852;2023-09-19T12:28:27;99206.47;;;20.14;100.00
21728;BME280;11026;50.560;17.852;2023-09-19T12:31:09;99215.00;;;20.20;100.00
21728;BME280;11026;50.560;17.852;2023-09-19T12:33:36;99215.38;;;20.15;100.00
21728;BME280;11026;50.560;17.852;2023-09-19T12:36:22;99217.63;;;20.10;100.00
21728;BME280;11026;50.560;17.852;2023-09-19T12:38:56;99229.28;;;19.89;100.00
21728;BME280;11026;50.560;17.852;2023-09-19T12:41:28;99224.53;;;19.72;100.00
21728;BME280;11026;50.560;17.852;2023-09-19T12:43:57;99224.97;;;19.35;100.00
21728;BME280;11026;50.560;17.852;2023-09-19T12:46:27;99238.44;;;19.24;100.00
21728;BME280;11026;50.560;17.852;2023-09-19T12:49:18;99243.97;;;18.79;100.00
21728;BME280;11026;50.560;17.852;2023-09-19T12:51:49;99249.66;;;18.31;100.00
21728;BME280;11026;50.560;17.852;2023-09-19T12:54:16;99266.19;;;17.91;100.00
21728;BME280;11026;50.560;17.852;2023-09-19T12:56:44;99265.88;;;17.61;100.00
21728;BME280;11026;50.560;17.852;2023-09-19T12:59:13;99260.63;;;17.48;100.00
21728;BME280;11026;50.560;17.852;2023-09-19T13:01:41;99274.88;;;17.25;100.00
21728;BME280;11026;50.560;17.852;2023-09-19T13:04:20;99267.41;;;17.06;100.00
21728;BME280;11026;50.560;17.852;2023-09-19T13:06:56;99275.66;;;17.03;100.00
21728;BME280;11026;50.560;17.852;2023-09-19T13:09:28;99256.66;;;16.94;100.00
21728;BME280;11026;50.560;17.852;2023-09-19T13:12:01;99261.41;;;16.91;100.00
21728;BME280;11026;50.560;17.852;2023-09-19T13:14:33;99250.75;;;17.02;100.00
21728;BME280;11026;50.560;17.852;2023-09-19T13:17:07;99256.34;;;17.10;100.00
21728;BME280;11026;50.560;17.852;2023-09-19T13:19:49;99239.72;;;17.07;100.00
21728;BME280;11026;50.560;17.852;2023-09-19T13:22:48;99242.72;;;17.02;100.00
21728;BME280;11026;50.560;17.852;2023-09-19T13:25:26;99240.19;;;17.01;100.00
21728;BME280;11026;50.560;17.852;2023-09-19T13:27:57;99240.31;;;17.10;100.00
21728;BME280;11026;50.560;17.852;2023-09-19T13:30:27;99240.50;;;17.20;100.00
21728;BME280;11026;50.560;17.852;2023-09-19T13:33:09;99241.25;;;17.33;100.00
21728;BME280;11026;50.560;17.852;2023-09-19T13:35:40;99240.69;;;17.52;100.00
21728;BME280;11026;50.560;17.852;2023-09-19T13:38:08;99240.97;;;17.72;100.00
21728;BME280;11026;50.560;17.852;2023-09-19T13:40:48;99237.22;;;17.74;100.00
21728;BME280;11026;50.560;17.852;2023-09-19T13:43:18;99232.75;;;17.86;100.00
21728;BME280;11026;50.560;17.852;2023-09-19T13:45:45;99223.63;;;18.00;100.00
21728;BME280;11026;50.560;17.852;2023-09-19T13:48:12;99227.25;;;18.21;100.00
21728;BME280;11026;50.560;17.852;2023-09-19T13:50:40;99227.38;;;19.17;100.00
21728;BME280;11026;50.560;17.852;2023-09-19T13:53:12;99222.03;;;19.80;100.00